createdAt,value
2019-04-16T00:00:34.972Z,8.03
2019-04-16T00:03:02.446Z,8.30
2019-04-16T00:05:37.390Z,8.37
2019-04-16T00:08:26.602Z,7.80
2019-04-16T00:11:15.382Z,8.10
2019-04-16T00:14:11.574Z,8.83
2019-04-16T00:16:41.349Z,8.30
2019-04-16T00:19:08.181Z,8.70
2019-04-16T00:21:55.527Z,7.57
2019-04-16T00:24:31.254Z,8.30
2019-04-16T00:27:00.016Z,6.80
2019-04-16T00:29:27.518Z,7.90
2019-04-16T00:32:14.502Z,8.07
2019-04-16T00:34:44.481Z,8.37
2019-04-16T00:37:11.077Z,7.90
2019-04-16T00:39:38.510Z,8.10
2019-04-16T00:42:06.511Z,8.07
2019-04-16T00:44:33.916Z,7.60
2019-04-16T00:47:01.372Z,8.00
2019-04-16T00:49:28.758Z,7.73
2019-04-16T00:51:56.149Z,8.57
2019-04-16T00:54:24.126Z,8.70
2019-04-16T00:56:51.546Z,9.10
2019-04-16T00:59:21.425Z,8.67
2019-04-16T01:01:48.358Z,8.50
2019-04-16T01:04:15.767Z,9.27
2019-04-16T01:06:43.162Z,8.70
2019-04-16T01:09:10.743Z,8.67
2019-04-16T01:11:38.134Z,8.33
2019-04-16T01:14:05.566Z,8.73
2019-04-16T01:16:33.604Z,7.80
2019-04-16T01:19:01.133Z,8.00
2019-04-16T01:21:28.526Z,8.27
2019-04-16T01:23:55.957Z,8.63
2019-04-16T01:26:24.221Z,7.70
2019-04-16T01:29:02.937Z,8.57
2019-04-16T01:31:39.474Z,8.50
2019-04-16T01:34:38.456Z,8.07
2019-04-16T01:37:34.506Z,6.80
2019-04-16T01:40:04.002Z,7.60
2019-04-16T01:42:31.413Z,7.57
2019-04-16T01:44:59.915Z,7.70
2019-04-16T01:47:28.222Z,7.77
2019-04-16T01:49:57.150Z,7.27
2019-04-16T01:52:24.588Z,8.10
2019-04-16T01:54:54.766Z,7.83
2019-04-16T01:57:21.221Z,7.70
2019-04-16T01:59:48.630Z,8.20
2019-04-16T02:02:16.063Z,8.10
2019-04-16T02:04:43.454Z,8.27
2019-04-16T02:07:10.857Z,7.87
2019-04-16T02:09:38.318Z,8.00
2019-04-16T02:12:05.756Z,7.97
2019-04-16T02:14:33.097Z,8.63
2019-04-16T02:17:00.643Z,8.20
2019-04-16T02:19:32.267Z,8.60
2019-04-16T02:21:57.270Z,7.13
2019-04-16T02:24:24.974Z,7.40
2019-04-16T02:26:54.815Z,7.67
2019-04-16T02:29:21.566Z,7.10
2019-04-16T02:31:51.568Z,7.03
2019-04-16T02:34:18.611Z,7.20
2019-04-16T02:36:46.007Z,7.37
2019-04-16T02:39:13.438Z,7.37
2019-04-16T02:41:41.620Z,7.70
2019-04-16T02:44:14.195Z,7.27
2019-04-16T02:46:38.630Z,7.30
2019-04-16T02:49:06.083Z,8.70
2019-04-16T02:51:55.831Z,7.30
2019-04-16T02:54:48.701Z,6.80
2019-04-16T02:57:28.222Z,6.37
2019-04-16T02:59:57.008Z,6.40
2019-04-16T03:02:45.670Z,7.10
2019-04-16T03:05:26.488Z,8.20
2019-04-16T03:07:55.261Z,7.70
2019-04-16T03:10:22.654Z,8.10
2019-04-16T03:12:52.140Z,7.60
2019-04-16T03:15:39.410Z,7.47
2019-04-16T03:18:06.843Z,7.53
2019-04-16T03:20:34.233Z,7.60
2019-04-16T03:23:05.297Z,7.97
2019-04-16T03:25:30.914Z,7.67
2019-04-16T03:27:58.307Z,7.37
2019-04-16T03:30:25.897Z,7.67
2019-04-16T03:32:53.276Z,7.40
2019-04-16T03:35:25.534Z,6.90
2019-04-16T03:37:49.931Z,7.70
2019-04-16T03:40:18.884Z,7.63
2019-04-16T03:42:46.694Z,8.07
2019-04-16T03:45:14.962Z,6.90
2019-04-16T03:47:42.367Z,7.50
2019-04-16T03:50:10.046Z,6.57
2019-04-16T03:52:40.883Z,7.37
2019-04-16T03:55:06.709Z,8.30
2019-04-16T03:57:34.110Z,8.33
2019-04-16T04:00:01.678Z,7.73
2019-04-16T04:02:29.188Z,7.00
2019-04-16T04:04:57.578Z,7.43
2019-04-16T04:07:25.917Z,7.97
2019-04-16T04:09:54.454Z,7.80
2019-04-16T04:12:22.525Z,7.67
2019-04-16T04:14:51.287Z,7.50
2019-04-16T04:17:19.184Z,8.20
2019-04-16T04:19:46.911Z,7.93
2019-04-16T04:22:14.565Z,8.60
2019-04-16T04:24:41.954Z,7.60
2019-04-16T04:27:13.085Z,7.10
2019-04-16T04:29:38.570Z,8.80
2019-04-16T04:32:05.963Z,7.87
2019-04-16T04:34:33.361Z,7.90
2019-04-16T04:37:00.850Z,8.17
2019-04-16T04:39:28.230Z,7.80
2019-04-16T04:41:56.446Z,7.90
2019-04-16T04:44:24.567Z,7.20
2019-04-16T04:46:53.279Z,8.17
2019-04-16T04:49:20.637Z,8.33
2019-04-16T04:51:48.205Z,7.30
2019-04-16T04:54:15.600Z,7.80
2019-04-16T04:56:43.002Z,8.00
2019-04-16T04:59:10.610Z,7.93
2019-04-16T05:01:37.998Z,7.27
2019-04-16T05:04:20.877Z,7.50
2019-04-16T05:06:48.857Z,7.30
2019-04-16T05:09:16.282Z,8.23
2019-04-16T05:11:44.089Z,8.23
2019-04-16T05:14:11.488Z,8.47
2019-04-16T05:16:38.890Z,7.27
2019-04-16T05:19:06.350Z,7.10
2019-04-16T05:21:33.811Z,8.20
2019-04-16T05:24:01.241Z,7.40
2019-04-16T05:26:28.674Z,8.10
2019-04-16T05:29:10.326Z,7.30
2019-04-16T05:31:39.414Z,7.93
2019-04-16T05:34:06.832Z,7.70
2019-04-16T05:36:34.231Z,8.00
2019-04-16T05:39:03.669Z,7.40
2019-04-16T05:41:30.885Z,7.07
2019-04-16T05:44:01.766Z,7.40
2019-04-16T05:46:27.844Z,7.70
2019-04-16T05:48:55.238Z,7.20
2019-04-16T05:51:22.814Z,7.07
2019-04-16T05:53:53.047Z,7.37
2019-04-16T05:56:31.014Z,7.50
2019-04-16T05:58:59.667Z,8.90
2019-04-16T06:01:46.187Z,7.70
2019-04-16T06:04:13.654Z,7.67
2019-04-16T06:06:41.058Z,7.03
2019-04-16T06:09:11.879Z,7.40
2019-04-16T06:11:38.558Z,6.80
2019-04-16T06:14:17.561Z,7.20
2019-04-16T06:17:05.607Z,6.97
2019-04-16T06:19:51.222Z,7.90
2019-04-16T06:22:30.502Z,7.53
2019-04-16T06:25:16.055Z,7.70
2019-04-16T06:28:02.967Z,7.37
2019-04-16T06:30:58.966Z,7.90
2019-04-16T06:33:45.888Z,7.70
2019-04-16T06:36:40.074Z,9.00
2019-04-16T06:39:30.640Z,7.33
2019-04-16T06:42:15.171Z,7.60
2019-04-16T06:44:54.858Z,6.77
2019-04-16T06:47:44.782Z,7.60
2019-04-16T06:50:31.876Z,7.53
2019-04-16T06:53:14.323Z,7.23
2019-04-16T06:55:54.640Z,7.57
2019-04-16T07:01:07.312Z,7.40
2019-04-16T07:01:41.666Z,7.40
2019-04-16T07:03:59.565Z,6.67
2019-04-16T07:07:08.022Z,7.33
2019-04-16T07:09:41.738Z,6.70
2019-04-16T07:12:15.333Z,6.57
2019-04-16T07:14:45.553Z,7.20
2019-04-16T07:17:12.100Z,7.00
2019-04-16T07:19:42.229Z,6.30
2019-04-16T07:22:08.893Z,6.60
2019-04-16T07:24:37.782Z,7.00
2019-04-16T07:27:05.826Z,7.33
2019-04-16T07:30:06.794Z,6.77
2019-04-16T07:32:52.175Z,6.73
2019-04-16T07:35:50.932Z,6.73
2019-04-16T07:38:23.934Z,6.83
2019-04-16T07:41:12.133Z,6.33
2019-04-16T07:43:57.654Z,6.40
2019-04-16T07:46:50.292Z,6.40
2019-04-16T07:49:37.436Z,6.47
2019-04-16T07:52:24.341Z,6.10
2019-04-16T07:55:10.555Z,6.20
2019-04-16T07:57:37.983Z,6.20
2019-04-16T08:00:09.291Z,6.40
2019-04-16T08:02:36.338Z,5.63
2019-04-16T08:05:07.452Z,6.47
2019-04-16T08:07:33.667Z,6.10
2019-04-16T08:10:02.803Z,6.87
2019-04-16T08:12:31.091Z,7.03
2019-04-16T08:15:12.522Z,5.60
2019-04-16T08:17:28.026Z,6.30
2019-04-16T08:19:56.042Z,5.30
2019-04-16T08:22:23.561Z,5.90
2019-04-16T08:24:59.652Z,5.93
2019-04-16T08:27:25.126Z,5.37
2019-04-16T08:29:52.536Z,6.40
2019-04-16T08:32:19.966Z,6.23
2019-04-16T08:34:48.493Z,5.57
2019-04-16T08:37:16.366Z,4.70
2019-04-16T08:39:43.764Z,5.70
2019-04-16T08:42:11.159Z,5.33
2019-04-16T08:44:38.752Z,5.50
2019-04-16T08:47:11.479Z,4.97
2019-04-16T08:49:35.645Z,4.87
2019-04-16T08:52:03.295Z,5.33
2019-04-16T08:54:30.699Z,4.50
2019-04-16T08:56:58.098Z,4.67
2019-04-16T08:59:25.552Z,4.40
2019-04-16T09:01:54.370Z,4.97
2019-04-16T09:04:22.160Z,4.87
2019-04-16T09:06:49.937Z,4.27
2019-04-16T09:09:25.615Z,4.40
2019-04-16T09:11:56.487Z,4.33
2019-04-16T09:14:26.078Z,4.50
2019-04-16T09:17:05.138Z,4.37
2019-04-16T09:19:32.542Z,3.97
2019-04-16T09:21:59.938Z,4.23
2019-04-16T09:24:33.899Z,4.30
2019-04-16T09:27:13.509Z,4.50
2019-04-16T09:30:01.590Z,3.93
2019-04-16T09:32:43.229Z,4.00
2019-04-16T09:35:23.374Z,3.90
2019-04-16T09:38:09.347Z,4.03
2019-04-16T09:41:12.853Z,3.80
2019-04-16T09:43:45.426Z,3.77
2019-04-16T09:46:21.595Z,3.63
2019-04-16T09:48:42.897Z,4.00
2019-04-16T09:51:10.291Z,3.70
2019-04-16T09:53:40.404Z,3.90
2019-04-16T09:56:28.432Z,3.23
2019-04-16T09:58:54.777Z,4.03
2019-04-16T10:01:24.469Z,3.97
2019-04-16T10:03:53.770Z,3.50
2019-04-16T10:06:21.285Z,3.93
2019-04-16T10:08:48.671Z,3.57
2019-04-16T10:11:18.550Z,3.73
2019-04-16T10:13:45.293Z,3.10
2019-04-16T10:16:14.331Z,3.20
2019-04-16T10:18:41.930Z,3.63
2019-04-16T10:21:09.348Z,3.50
2019-04-16T10:24:03.173Z,3.20
2019-04-16T10:26:30.595Z,3.37
2019-04-16T10:28:59.509Z,3.30
2019-04-16T10:31:27.197Z,3.40
2019-04-16T10:33:54.581Z,3.30
2019-04-16T10:36:22.042Z,3.93
2019-04-16T10:39:07.797Z,4.47
2019-04-16T10:41:57.473Z,4.57
2019-04-16T10:44:44.311Z,4.53
2019-04-16T10:47:30.360Z,5.00
2019-04-16T10:50:23.884Z,4.20
2019-04-16T10:53:09.255Z,4.03
2019-04-16T10:55:48.370Z,4.00
2019-04-16T10:58:28.667Z,3.90
2019-04-16T11:01:04.035Z,3.67
2019-04-16T11:03:50.951Z,4.20
2019-04-16T11:06:28.479Z,3.63
2019-04-16T11:08:55.865Z,4.03
2019-04-16T11:11:23.292Z,3.80
2019-04-16T11:13:59.660Z,4.00
2019-04-16T11:16:20.898Z,3.97
2019-04-16T11:18:48.400Z,4.50
2019-04-16T11:21:15.895Z,3.77
2019-04-16T11:23:43.270Z,3.63
2019-04-16T11:26:10.869Z,3.60
2019-04-16T11:28:38.278Z,4.10
2019-04-16T11:31:09.966Z,4.43
2019-04-16T11:33:37.577Z,3.70
2019-04-16T11:36:17.357Z,3.93
2019-04-16T11:38:34.302Z,4.00
2019-04-16T11:41:01.716Z,3.93
2019-04-16T11:43:29.178Z,4.33
2019-04-16T11:45:56.823Z,3.93
2019-04-16T11:48:24.447Z,4.13
2019-04-16T11:50:51.848Z,3.77
2019-04-16T11:53:19.245Z,3.50
2019-04-16T11:55:46.655Z,4.07
2019-04-16T11:58:39.571Z,3.73
2019-04-16T12:01:24.281Z,4.07
2019-04-16T12:04:02.055Z,4.20
2019-04-16T12:06:43.821Z,3.70
2019-04-16T12:09:29.664Z,3.77
2019-04-16T12:12:02.186Z,3.30
2019-04-16T12:14:54.929Z,3.90
2019-04-16T12:17:36.324Z,3.70
2019-04-16T12:20:16.662Z,3.77
2019-04-16T12:22:53.149Z,4.07
2019-04-16T12:25:33.420Z,3.87
2019-04-16T12:28:42.183Z,3.80
2019-04-16T12:31:16.843Z,3.60
2019-04-16T12:34:02.253Z,3.20
2019-04-16T12:36:52.205Z,3.53
2019-04-16T12:39:48.206Z,3.37
2019-04-16T12:42:22.650Z,3.20
2019-04-16T12:44:52.018Z,3.60
2019-04-16T12:47:45.462Z,3.93
2019-04-16T12:50:32.654Z,3.70
2019-04-16T12:53:04.259Z,3.63
2019-04-16T12:56:08.418Z,3.90
2019-04-16T12:58:50.762Z,3.97
2019-04-16T13:01:37.236Z,4.17
2019-04-16T13:04:16.405Z,3.80
2019-04-16T13:06:58.138Z,3.60
2019-04-16T13:09:43.829Z,4.17
2019-04-16T13:12:33.289Z,3.80
2019-04-16T13:15:15.571Z,3.47
2019-04-16T13:18:11.106Z,3.77
2019-04-16T13:21:04.060Z,3.73
2019-04-16T13:23:36.910Z,3.47
2019-04-16T13:26:12.840Z,3.67
2019-04-16T13:28:38.662Z,3.73
2019-04-16T13:31:06.070Z,3.23
2019-04-16T13:33:33.556Z,3.23
2019-04-16T13:36:00.949Z,3.20
2019-04-16T13:38:29.447Z,3.97
2019-04-16T13:40:57.003Z,3.20
2019-04-16T13:43:28.885Z,3.30
2019-04-16T13:45:58.181Z,3.00
2019-04-16T13:48:33.469Z,3.67
2019-04-16T13:51:04.478Z,2.93
2019-04-16T13:53:53.014Z,3.67
2019-04-16T13:56:26.615Z,3.10
2019-04-16T13:59:19.938Z,3.30
2019-04-16T14:01:59.091Z,3.40
2019-04-16T14:04:30.583Z,3.30
2019-04-16T14:06:56.019Z,2.80
2019-04-16T14:09:23.406Z,3.60
2019-04-16T14:11:51.948Z,5.80
2019-04-16T14:14:22.495Z,3.33
2019-04-16T14:16:48.667Z,6.13
2019-04-16T14:19:16.122Z,3.77
2019-04-16T14:21:45.310Z,3.20
2019-04-16T14:24:12.957Z,2.90
2019-04-16T14:26:40.345Z,3.10
2019-04-16T14:29:07.907Z,3.13
2019-04-16T14:31:35.346Z,3.20
2019-04-16T14:34:20.454Z,2.97
2019-04-16T14:36:47.859Z,2.73
2019-04-16T14:39:29.342Z,3.17
2019-04-16T14:41:56.755Z,3.03
2019-04-16T14:44:26.139Z,3.40
2019-04-16T14:46:53.579Z,3.13
2019-04-16T14:49:21.419Z,4.70
2019-04-16T14:51:48.822Z,2.90
2019-04-16T14:54:33.140Z,3.80
2019-04-16T14:57:00.891Z,3.83
2019-04-16T14:59:46.607Z,3.40
2019-04-16T15:02:25.158Z,3.13
2019-04-16T15:05:21.499Z,3.33
2019-04-16T15:08:00.019Z,3.20
2019-04-16T15:10:45.403Z,2.60
2019-04-16T15:13:47.219Z,2.80
2019-04-16T15:16:32.918Z,3.07
2019-04-16T15:19:18.509Z,2.90
2019-04-16T15:22:03.953Z,2.73
2019-04-16T15:24:59.454Z,2.80
2019-04-16T15:27:55.906Z,2.60
2019-04-16T15:30:41.571Z,4.40
2019-04-16T15:33:27.913Z,2.60
2019-04-16T15:35:58.898Z,3.10
2019-04-16T15:38:33.195Z,2.50
2019-04-16T15:41:22.894Z,2.77
2019-04-16T15:44:07.275Z,2.70
2019-04-16T15:46:53.996Z,2.73
2019-04-16T15:49:29.582Z,2.80
2019-04-16T15:52:18.683Z,2.90
2019-04-16T15:55:00.155Z,3.03
2019-04-16T15:57:59.430Z,2.80
2019-04-16T16:00:42.908Z,3.00
2019-04-16T16:03:28.302Z,2.60
2019-04-16T16:06:08.040Z,2.87
2019-04-16T16:08:39.874Z,2.97
2019-04-16T16:11:17.148Z,3.00
2019-04-16T16:13:45.118Z,2.83
2019-04-16T16:16:17.571Z,3.50
2019-04-16T16:18:41.726Z,7.80
2019-04-16T16:21:09.200Z,4.20
2019-04-16T16:23:36.589Z,3.50
2019-04-16T16:26:03.998Z,3.33
2019-04-16T16:28:31.507Z,3.43
2019-04-16T16:30:58.904Z,3.17
2019-04-16T16:33:26.294Z,3.23
2019-04-16T16:35:58.928Z,3.63
2019-04-16T16:38:23.006Z,5.73
2019-04-16T16:40:50.573Z,5.43
2019-04-16T16:43:18.323Z,6.07
2019-04-16T16:46:07.966Z,7.97
2019-04-16T16:48:35.833Z,7.73
2019-04-16T16:51:03.504Z,6.13
2019-04-16T16:53:53.219Z,7.90
2019-04-16T16:56:38.911Z,9.80
2019-04-16T16:59:22.331Z,9.47
2019-04-16T17:01:58.139Z,7.80
2019-04-16T17:04:34.762Z,7.63
2019-04-16T17:07:02.358Z,4.80
2019-04-16T17:09:34.435Z,3.63
2019-04-16T17:12:01.992Z,3.77
2019-04-16T17:14:29.388Z,3.80
2019-04-16T17:17:11.833Z,4.60
2019-04-16T17:19:27.450Z,3.83
2019-04-16T17:21:54.864Z,3.53
2019-04-16T17:24:22.259Z,3.20
2019-04-16T17:26:50.217Z,3.50
2019-04-16T17:29:18.128Z,3.33
2019-04-16T17:31:45.642Z,3.43
2019-04-16T17:34:13.119Z,3.63
2019-04-16T17:36:40.506Z,2.70
2019-04-16T17:39:10.537Z,4.07
2019-04-16T17:41:42.337Z,5.50
2019-04-16T17:44:28.117Z,5.47
2019-04-16T17:47:32.033Z,3.97
2019-04-16T17:50:04.832Z,3.93
2019-04-16T17:52:41.117Z,3.60
2019-04-16T17:55:21.886Z,3.23
2019-04-16T17:57:58.232Z,3.00
2019-04-16T18:00:45.176Z,3.20
2019-04-16T18:03:37.111Z,3.30
2019-04-16T18:06:09.542Z,3.00
2019-04-16T18:08:59.510Z,2.77
2019-04-16T18:11:41.014Z,3.30
2019-04-16T18:14:47.928Z,2.73
2019-04-16T18:17:46.328Z,2.40
2019-04-16T18:20:23.070Z,3.00
2019-04-16T18:23:06.048Z,2.63
2019-04-16T18:26:04.868Z,2.67
2019-04-16T18:28:38.816Z,6.07
2019-04-16T18:31:16.139Z,5.30
2019-04-16T18:33:58.837Z,3.63
2019-04-16T18:36:52.496Z,3.13
2019-04-16T18:39:37.116Z,4.77
2019-04-16T18:42:09.845Z,5.57
2019-04-16T18:44:53.869Z,4.80
2019-04-16T18:47:38.601Z,3.90
2019-04-16T18:50:09.456Z,3.70
2019-04-16T18:52:37.498Z,4.57
2019-04-16T18:55:06.102Z,3.70
2019-04-16T18:57:38.140Z,4.70
2019-04-16T19:00:05.643Z,4.67
2019-04-16T19:02:33.216Z,4.00
2019-04-16T19:05:00.662Z,7.73
2019-04-16T19:07:28.150Z,11.50
2019-04-16T19:09:55.726Z,10.13
2019-04-16T19:12:23.150Z,10.30
2019-04-16T19:14:50.575Z,9.67
2019-04-16T19:17:18.053Z,11.20
2019-04-16T19:19:45.733Z,8.57
2019-04-16T19:22:13.331Z,7.83
2019-04-16T19:24:41.943Z,8.37
2019-04-16T19:27:09.339Z,7.90
2019-04-16T19:29:36.826Z,5.87
2019-04-16T19:32:04.294Z,4.90
2019-04-16T19:34:33.519Z,4.67
2019-04-16T19:37:01.365Z,4.00
2019-04-16T19:39:29.134Z,5.03
2019-04-16T19:41:58.135Z,5.30
2019-04-16T19:44:25.747Z,4.60
2019-04-16T19:46:54.346Z,4.70
2019-04-16T19:49:22.688Z,6.13
2019-04-16T19:51:50.120Z,5.77
2019-04-16T19:54:18.000Z,5.00
2019-04-16T19:56:48.466Z,5.20
2019-04-16T19:59:34.215Z,4.70
2019-04-16T20:02:02.383Z,4.60
2019-04-16T20:04:29.948Z,4.17
2019-04-16T20:07:00.878Z,4.70
2019-04-16T20:09:27.860Z,6.57
2019-04-16T20:11:56.365Z,6.70
2019-04-16T20:14:24.403Z,6.33
2019-04-16T20:16:51.806Z,7.30
2019-04-16T20:19:19.210Z,6.17
2019-04-16T20:21:47.096Z,7.97
2019-04-16T20:24:14.510Z,8.40
2019-04-16T20:26:41.934Z,8.37
2019-04-16T20:29:09.430Z,8.50
2019-04-16T20:31:36.858Z,5.97
2019-04-16T20:34:04.251Z,4.70
2019-04-16T20:36:33.532Z,4.57
2019-04-16T20:39:00.953Z,5.50
2019-04-16T20:41:28.392Z,5.00
2019-04-16T20:43:55.910Z,5.83
2019-04-16T20:46:23.323Z,5.03
2019-04-16T20:49:05.663Z,4.50
2019-04-16T20:51:20.206Z,5.07
2019-04-16T20:53:47.634Z,7.00
2019-04-16T20:56:20.212Z,5.47
2019-04-16T20:58:44.302Z,5.67
2019-04-16T21:01:12.222Z,5.40
2019-04-16T21:03:40.707Z,6.20
2019-04-16T21:06:09.699Z,5.80
2019-04-16T21:08:38.359Z,4.17
2019-04-16T21:11:08.808Z,6.23
2019-04-16T21:13:35.000Z,5.33
2019-04-16T21:16:02.959Z,4.70
2019-04-16T21:18:30.540Z,4.87
2019-04-16T21:20:58.233Z,5.47
2019-04-16T21:23:25.733Z,4.10
2019-04-16T21:25:53.153Z,4.93
2019-04-16T21:28:28.943Z,5.63
2019-04-16T21:31:00.597Z,5.50
2019-04-16T21:33:56.745Z,4.80
2019-04-16T21:36:40.760Z,4.40
2019-04-16T21:39:19.648Z,4.17
2019-04-16T21:41:47.095Z,4.47
2019-04-16T21:44:14.487Z,4.93
2019-04-16T21:46:41.949Z,4.17
2019-04-16T21:49:09.374Z,4.43
2019-04-16T21:51:38.697Z,3.80
2019-04-16T21:54:06.167Z,4.30
2019-04-16T21:56:33.716Z,4.53
2019-04-16T21:59:04.724Z,3.30
2019-04-16T22:01:36.997Z,4.30
2019-04-16T22:04:13.232Z,4.03
2019-04-16T22:06:37.602Z,3.93
2019-04-16T22:09:06.265Z,3.67
2019-04-16T22:11:34.013Z,4.27
2019-04-16T22:14:01.738Z,4.37
2019-04-16T22:16:30.492Z,3.93
2019-04-16T22:18:58.025Z,4.73
2019-04-16T22:21:25.423Z,4.10
2019-04-16T22:23:52.886Z,5.50
2019-04-16T22:26:20.285Z,5.00
2019-04-16T22:28:47.694Z,3.80
2019-04-16T22:31:15.227Z,3.90
2019-04-16T22:33:42.639Z,3.83
2019-04-16T22:36:10.126Z,4.23
2019-04-16T22:38:38.374Z,4.57
2019-04-16T22:41:17.019Z,3.90
2019-04-16T22:44:09.942Z,4.07
2019-04-16T22:46:40.523Z,4.03
2019-04-16T22:49:07.917Z,4.37
2019-04-16T22:51:35.451Z,5.40
2019-04-16T22:54:02.944Z,4.47
2019-04-16T22:56:52.877Z,4.10
2019-04-16T22:59:20.282Z,4.60
2019-04-16T23:01:48.146Z,3.60
2019-04-16T23:04:15.854Z,4.40
2019-04-16T23:06:43.242Z,4.60
2019-04-16T23:09:16.778Z,4.20
2019-04-16T23:11:39.998Z,5.47
2019-04-16T23:14:07.394Z,4.60
2019-04-16T23:16:34.798Z,4.50
2019-04-16T23:19:02.256Z,4.30
2019-04-16T23:21:29.674Z,3.90
2019-04-16T23:23:57.267Z,3.93
2019-04-16T23:26:24.722Z,3.47
2019-04-16T23:28:52.109Z,4.30
2019-04-16T23:31:19.681Z,4.77
2019-04-16T23:33:48.903Z,4.50
2019-04-16T23:36:16.721Z,5.80
2019-04-16T23:38:44.213Z,5.40
2019-04-16T23:41:15.330Z,5.00
2019-04-16T23:44:02.854Z,5.43
2019-04-16T23:46:55.782Z,5.80
2019-04-16T23:49:41.414Z,5.57
2019-04-16T23:52:15.287Z,4.77
2019-04-16T23:54:52.621Z,4.67
2019-04-16T23:57:35.811Z,3.50
